createdAt,value
2023-05-14T00:00:32.491Z,86384.81
2023-05-14T00:02:59.748Z,86434.50
2023-05-14T00:05:27.133Z,86442.75
2023-05-14T00:07:54.164Z,86402.78
2023-05-14T00:10:22.227Z,86405.47
2023-05-14T00:12:51.084Z,86413.06
2023-05-14T00:15:18.482Z,86437.97
2023-05-14T00:17:45.806Z,86324.25
2023-05-14T00:20:12.902Z,86362.84
2023-05-14T00:22:40.647Z,86440.75
2023-05-14T00:25:08.569Z,86391.06
2023-05-14T00:27:37.926Z,86422.78
2023-05-14T00:30:07.088Z,86441.41
2023-05-14T00:32:34.556Z,86433.06
2023-05-14T00:35:03.633Z,86438.66
2023-05-14T00:37:30.774Z,86438.59
2023-05-14T00:40:00.493Z,86362.03
2023-05-14T00:42:27.527Z,86393.03
2023-05-14T00:44:54.644Z,86420.63
2023-05-14T00:47:21.746Z,86409.59
2023-05-14T00:49:48.897Z,86372.28
2023-05-14T00:52:17.083Z,86335.00
2023-05-14T00:54:46.926Z,86369.47
2023-05-14T00:57:14.212Z,86401.88
2023-05-14T00:59:42.793Z,86355.66
2023-05-14T01:02:10.069Z,86383.19
2023-05-14T01:04:38.646Z,86334.94
2023-05-14T01:07:32.183Z,86388.00
2023-05-14T01:10:17.792Z,86385.91
2023-05-14T01:12:51.365Z,86385.28
2023-05-14T01:15:18.281Z,86388.03
2023-05-14T01:17:59.729Z,86292.81
2023-05-14T01:20:27.374Z,86377.03
2023-05-14T01:22:54.481Z,86359.81
2023-05-14T01:25:21.676Z,86388.16
2023-05-14T01:28:17.624Z,86379.13
2023-05-14T01:30:58.803Z,86368.00
2023-05-14T01:33:29.532Z,86341.13
2023-05-14T01:35:56.813Z,86274.38
2023-05-14T01:38:24.523Z,86352.91
2023-05-14T01:40:52.673Z,86348.06
2023-05-14T01:43:21.269Z,86377.00
2023-05-14T01:45:48.417Z,86346.00
2023-05-14T01:48:15.834Z,86383.19
2023-05-14T01:50:42.959Z,86379.03
2023-05-14T01:53:10.011Z,86194.44
2023-05-14T01:55:37.140Z,86253.66
2023-05-14T01:58:04.309Z,86310.22
2023-05-14T02:00:31.790Z,86237.75
2023-05-14T02:02:58.998Z,86341.75
2023-05-14T02:05:26.181Z,86351.44
2023-05-14T02:07:54.550Z,86335.53
2023-05-14T02:10:21.795Z,86371.38
2023-05-14T02:12:50.038Z,86359.72
2023-05-14T02:15:17.302Z,86360.41
2023-05-14T02:17:44.401Z,86360.50
2023-05-14T02:20:11.888Z,86319.84
2023-05-14T02:22:38.970Z,86343.25
2023-05-14T02:25:06.506Z,86352.91
2023-05-14T02:27:33.891Z,86376.31
2023-05-14T02:30:01.210Z,86344.63
2023-05-14T02:32:28.697Z,86311.47
2023-05-14T02:34:55.895Z,86369.38
2023-05-14T02:37:23.049Z,86355.50
2023-05-14T02:39:50.188Z,86321.81
2023-05-14T02:42:17.269Z,86301.78
2023-05-14T02:44:44.276Z,86381.84
2023-05-14T02:47:11.414Z,86361.19
2023-05-14T02:49:38.823Z,86379.09
2023-05-14T02:52:06.767Z,86373.69
2023-05-14T02:54:33.827Z,86392.97
2023-05-14T02:57:01.057Z,86273.16
2023-05-14T02:59:28.301Z,86379.38
2023-05-14T03:01:56.002Z,86364.28
2023-05-14T03:04:23.520Z,86343.50
2023-05-14T03:06:50.600Z,86386.31
2023-05-14T03:09:17.619Z,86373.91
2023-05-14T03:11:44.808Z,86347.06
2023-05-14T03:14:12.043Z,86344.97
2023-05-14T03:16:40.313Z,86332.56
2023-05-14T03:19:07.561Z,86393.94
2023-05-14T03:21:34.813Z,86402.25
2023-05-14T03:24:02.098Z,86368.44
2023-05-14T03:26:29.246Z,86341.50
2023-05-14T03:28:56.360Z,86352.50
2023-05-14T03:31:23.535Z,86388.38
2023-05-14T03:33:50.636Z,86328.41
2023-05-14T03:36:17.757Z,86300.84
2023-05-14T03:38:44.779Z,86383.44
2023-05-14T03:41:11.882Z,86334.53
2023-05-14T03:43:38.959Z,86377.91
2023-05-14T03:46:06.033Z,86383.38
2023-05-14T03:48:33.297Z,86379.22
2023-05-14T03:51:00.421Z,86324.75
2023-05-14T03:53:28.505Z,86364.88
2023-05-14T03:55:55.434Z,86338.03
2023-05-14T03:58:22.348Z,86392.44
2023-05-14T04:00:49.498Z,86320.03
2023-05-14T04:03:16.936Z,86358.69
2023-05-14T04:05:44.113Z,86318.72
2023-05-14T04:08:11.243Z,86344.94
2023-05-14T04:10:38.243Z,86386.31
2023-05-14T04:13:05.270Z,86362.19
2023-05-14T04:15:39.518Z,86395.25
2023-05-14T04:18:06.765Z,86393.81
2023-05-14T04:20:34.128Z,86331.72
2023-05-14T04:23:01.144Z,86377.97
2023-05-14T04:25:28.313Z,86364.13
2023-05-14T04:27:55.383Z,86311.03
2023-05-14T04:30:22.899Z,86388.28
2023-05-14T04:32:50.314Z,86402.03
2023-05-14T04:35:17.343Z,86344.09
2023-05-14T04:37:44.420Z,86348.25
2023-05-14T04:40:11.606Z,86379.31
2023-05-14T04:42:39.282Z,86412.47
2023-05-14T04:45:07.021Z,86433.28
2023-05-14T04:47:34.162Z,86397.38
2023-05-14T04:50:01.470Z,86329.78
2023-05-14T04:52:28.559Z,86393.91
2023-05-14T04:54:56.995Z,86307.16
2023-05-14T04:57:24.166Z,86427.75
2023-05-14T04:59:51.130Z,86415.28
2023-05-14T05:02:18.328Z,86395.22
2023-05-14T05:04:47.235Z,86245.72
2023-05-14T05:07:14.763Z,86260.84
2023-05-14T05:09:42.877Z,86431.72
2023-05-14T05:12:10.240Z,86427.56
2023-05-14T05:14:37.336Z,86426.81
2023-05-14T05:17:04.495Z,86384.84
2023-05-14T05:19:42.578Z,86310.38
2023-05-14T05:22:11.049Z,86437.19
2023-05-14T05:24:38.070Z,86443.41
2023-05-14T05:27:05.746Z,86379.97
2023-05-14T05:29:32.811Z,86418.56
2023-05-14T05:32:00.052Z,86416.50
2023-05-14T05:34:27.460Z,86444.75
2023-05-14T05:36:54.531Z,86435.13
2023-05-14T05:39:21.623Z,86448.97
2023-05-14T05:41:48.788Z,86425.50
2023-05-14T05:44:15.909Z,86408.22
2023-05-14T05:46:42.960Z,86384.75
2023-05-14T05:49:10.017Z,86364.72
2023-05-14T05:51:37.055Z,86390.28
2023-05-14T05:54:04.286Z,86446.03
2023-05-14T05:56:31.388Z,86441.13
2023-05-14T05:58:58.484Z,86441.09
2023-05-14T06:01:25.636Z,86448.06
2023-05-14T06:03:53.605Z,86397.66
2023-05-14T06:06:21.971Z,86348.09
2023-05-14T06:08:49.314Z,86434.28
2023-05-14T06:11:17.151Z,86467.47
2023-05-14T06:13:44.244Z,86450.97
2023-05-14T06:16:11.574Z,86466.06
2023-05-14T06:18:38.730Z,86431.75
2023-05-14T06:21:06.178Z,86468.91
2023-05-14T06:23:33.617Z,86395.06
2023-05-14T06:26:00.701Z,86450.88
2023-05-14T06:28:27.692Z,86438.50
2023-05-14T06:30:54.704Z,86450.34
2023-05-14T06:33:29.667Z,86471.69
2023-05-14T06:35:57.274Z,86499.38
2023-05-14T06:38:24.364Z,86452.47
2023-05-14T06:40:51.988Z,86456.63
2023-05-14T06:43:19.232Z,86468.91
2023-05-14T06:45:49.311Z,86499.25
2023-05-14T06:48:18.921Z,86427.66
2023-05-14T06:50:49.884Z,86476.66
2023-05-14T06:53:17.285Z,86474.63
2023-05-14T06:55:45.187Z,86502.31
2023-05-14T06:58:12.141Z,86469.28
2023-05-14T07:00:40.309Z,86488.66
2023-05-14T07:03:07.436Z,86478.22
2023-05-14T07:05:34.669Z,86469.22
2023-05-14T07:08:01.697Z,86456.75
2023-05-14T07:10:28.776Z,86500.16
2023-05-14T07:12:55.843Z,86445.69
2023-05-14T07:15:22.789Z,86501.53
2023-05-14T07:17:49.839Z,86458.88
2023-05-14T07:20:17.012Z,86472.56
2023-05-14T07:22:44.080Z,86508.41
2023-05-14T07:25:11.227Z,86513.25
2023-05-14T07:27:38.372Z,86471.19
2023-05-14T07:30:05.949Z,86467.66
2023-05-14T07:32:32.885Z,86472.50
2023-05-14T07:35:00.417Z,86491.13
2023-05-14T07:37:27.763Z,86459.28
2023-05-14T07:39:54.860Z,86442.66
2023-05-14T07:42:34.389Z,86427.47
2023-05-14T07:45:03.923Z,86485.25
2023-05-14T07:47:35.527Z,86477.59
2023-05-14T07:50:02.631Z,86478.25
2023-05-14T07:52:29.985Z,86447.88
2023-05-14T07:54:57.028Z,86451.91
2023-05-14T07:57:24.021Z,86473.91
2023-05-14T07:59:51.114Z,86440.03
2023-05-14T08:02:18.279Z,86459.94
2023-05-14T08:04:45.904Z,86435.16
2023-05-14T08:07:12.914Z,86464.06
2023-05-14T08:09:40.134Z,86450.09
2023-05-14T08:12:07.757Z,86390.03
2023-05-14T08:14:35.070Z,86427.22
2023-05-14T08:17:02.156Z,86410.56
2023-05-14T08:19:29.343Z,86415.53
2023-05-14T08:21:56.443Z,86438.97
2023-05-14T08:24:23.425Z,86400.41
2023-05-14T08:26:50.366Z,86412.91
2023-05-14T08:29:17.462Z,86441.03
2023-05-14T08:31:44.545Z,86396.97
2023-05-14T08:34:11.593Z,86374.28
2023-05-14T08:36:41.521Z,86419.81
2023-05-14T08:39:08.952Z,86463.81
2023-05-14T08:41:37.658Z,86481.91
2023-05-14T08:44:12.297Z,86495.13
2023-05-14T08:46:39.888Z,86505.66
2023-05-14T08:49:13.367Z,86505.59
2023-05-14T08:51:41.392Z,86442.75
2023-05-14T08:54:08.665Z,86437.91
2023-05-14T08:56:36.386Z,86469.66
2023-05-14T08:59:03.501Z,86452.41
2023-05-14T09:01:30.943Z,86402.13
2023-05-14T09:03:58.877Z,86464.19
2023-05-14T09:06:27.508Z,86483.34
2023-05-14T09:08:54.992Z,86481.94
2023-05-14T09:11:22.148Z,86480.53
2023-05-14T09:13:49.171Z,86434.34
2023-05-14T09:16:18.406Z,86483.31
2023-05-14T09:18:46.002Z,86482.56
2023-05-14T09:21:16.178Z,86485.25
2023-05-14T09:23:44.640Z,86486.63
2023-05-14T09:26:12.237Z,86492.94
2023-05-14T09:28:43.789Z,86473.56
2023-05-14T09:31:11.100Z,86445.78
2023-05-14T09:33:38.100Z,86474.78
2023-05-14T09:36:05.311Z,86460.31
2023-05-14T09:38:33.324Z,86467.78
2023-05-14T09:41:01.207Z,86442.13
2023-05-14T09:43:28.553Z,86435.31
2023-05-14T09:45:55.755Z,86417.28
2023-05-14T09:48:23.222Z,86383.56
2023-05-14T09:50:51.778Z,86394.59
2023-05-14T09:53:19.457Z,86412.34
2023-05-14T09:55:47.157Z,86401.19
2023-05-14T09:58:16.934Z,86437.03
2023-05-14T10:00:46.568Z,86371.16
2023-05-14T10:03:17.932Z,86449.50
2023-05-14T10:05:49.525Z,86441.81
2023-05-14T10:08:25.527Z,86436.19
2023-05-14T10:10:54.590Z,86423.50
2023-05-14T10:13:28.126Z,86382.88
2023-05-14T10:16:16.781Z,86418.34
2023-05-14T10:18:48.744Z,86419.78
2023-05-14T10:21:18.281Z,86403.16
2023-05-14T10:23:49.223Z,86423.88
2023-05-14T10:26:17.096Z,86376.91
2023-05-14T10:28:44.540Z,86362.97
2023-05-14T10:31:11.896Z,86331.31
2023-05-14T10:33:50.670Z,86341.56
2023-05-14T10:36:18.860Z,86353.06
2023-05-14T10:38:47.578Z,86398.41
2023-05-14T10:41:18.104Z,86327.66
2023-05-14T10:43:45.444Z,86374.41
2023-05-14T10:46:14.000Z,86392.09
2023-05-14T10:48:44.542Z,86373.34
2023-05-14T10:51:12.829Z,86399.16
2023-05-14T10:53:42.562Z,86388.88
2023-05-14T10:56:14.454Z,86379.91
2023-05-14T10:58:45.335Z,86413.50
2023-05-14T11:01:13.949Z,86372.50
2023-05-14T11:03:43.856Z,86335.59
2023-05-14T11:06:13.628Z,86362.84
2023-05-14T11:08:42.882Z,86398.22
2023-05-14T11:11:10.999Z,86368.69
2023-05-14T11:13:38.606Z,86383.50
2023-05-14T11:18:42.044Z,86350.00
2023-05-14T11:21:09.241Z,86373.06
2023-05-14T11:23:36.597Z,86364.56
2023-05-14T11:26:03.965Z,86377.84
2023-05-14T11:28:31.041Z,86348.69
2023-05-14T11:30:58.202Z,86372.66
2023-05-14T11:33:28.125Z,86374.41
2023-05-14T11:35:55.111Z,86371.50
2023-05-14T11:38:22.265Z,86299.16
2023-05-14T11:40:56.841Z,86326.53
2023-05-14T11:43:24.401Z,86365.34
2023-05-14T11:45:53.097Z,86386.47
2023-05-14T11:48:21.596Z,86358.84
2023-05-14T11:50:50.241Z,86363.66
2023-05-14T11:53:28.587Z,86277.66
2023-05-14T11:55:57.930Z,86310.94
2023-05-14T11:58:25.706Z,86366.28
2023-05-14T12:00:53.745Z,86364.53
2023-05-14T12:03:30.982Z,86340.88
2023-05-14T12:06:02.800Z,86371.19
2023-05-14T12:08:32.375Z,86375.81
2023-05-14T12:11:00.978Z,86368.03
2023-05-14T12:13:31.837Z,86353.38
2023-05-14T12:16:02.782Z,86316.75
2023-05-14T12:18:31.652Z,86330.16
2023-05-14T12:21:08.504Z,86352.50
2023-05-14T12:23:35.947Z,86299.63
2023-05-14T12:26:06.513Z,86352.56
2023-05-14T12:28:36.923Z,86297.97
2023-05-14T12:31:05.170Z,86318.34
2023-05-14T12:33:32.204Z,86360.13
2023-05-14T12:36:14.098Z,86355.56
2023-05-14T12:38:48.247Z,86304.53
2023-05-14T12:41:15.334Z,86331.53
2023-05-14T12:43:47.525Z,86347.56
2023-05-14T12:46:14.877Z,86347.03
2023-05-14T12:48:41.931Z,86344.66
2023-05-14T12:51:09.138Z,86337.84
2023-05-14T12:53:36.042Z,86293.53
2023-05-14T12:56:03.268Z,86311.78
2023-05-14T12:58:30.376Z,86321.31
2023-05-14T13:00:57.434Z,86300.19
2023-05-14T13:03:24.875Z,86327.31
2023-05-14T13:05:52.956Z,86337.78
2023-05-14T13:08:21.755Z,86341.91
2023-05-14T13:10:48.799Z,86337.69
2023-05-14T13:13:16.352Z,86322.59
2023-05-14T13:15:46.951Z,86253.84
2023-05-14T13:18:14.730Z,86315.63
2023-05-14T13:20:43.188Z,86285.59
2023-05-14T13:23:10.762Z,86271.63
2023-05-14T13:25:37.776Z,86306.22
2023-05-14T13:28:04.978Z,86317.06
2023-05-14T13:30:32.540Z,86295.97
2023-05-14T13:33:00.284Z,86307.41
2023-05-14T13:35:27.264Z,86280.75
2023-05-14T13:37:54.203Z,86303.56
2023-05-14T13:40:21.259Z,86318.16
2023-05-14T13:42:48.163Z,86286.03
2023-05-14T13:45:15.125Z,86301.72
2023-05-14T13:47:42.342Z,86321.44
2023-05-14T13:50:09.445Z,86320.81
2023-05-14T13:52:36.733Z,86327.28
2023-05-14T13:55:04.197Z,86341.03
2023-05-14T13:57:31.378Z,86308.78
2023-05-14T13:59:58.417Z,86307.41
2023-05-14T14:02:25.492Z,86339.66
2023-05-14T14:04:52.575Z,86344.66
2023-05-14T14:07:19.523Z,86326.28
2023-05-14T14:09:46.508Z,86293.16
2023-05-14T14:12:13.565Z,86272.97
2023-05-14T14:14:41.146Z,86337.47
2023-05-14T14:17:09.293Z,86305.31
2023-05-14T14:19:36.491Z,86266.53
2023-05-14T14:22:03.752Z,86313.69
2023-05-14T14:24:30.814Z,86317.09
2023-05-14T14:26:58.055Z,86293.38
2023-05-14T14:29:25.108Z,86313.69
2023-05-14T14:31:52.368Z,86269.13
2023-05-14T14:34:19.460Z,86281.81
2023-05-14T14:36:46.450Z,86296.25
2023-05-14T14:39:13.460Z,86257.13
2023-05-14T14:41:40.461Z,86269.22
2023-05-14T14:44:07.405Z,86289.44
2023-05-14T14:46:34.428Z,86275.00
2023-05-14T14:49:01.541Z,86295.97
2023-05-14T14:51:28.522Z,86257.00
2023-05-14T14:53:55.704Z,86294.22
2023-05-14T14:56:22.765Z,86288.84
2023-05-14T14:58:49.658Z,86268.31
2023-05-14T15:01:17.149Z,86286.00
2023-05-14T15:03:45.897Z,86292.38
2023-05-14T15:06:12.842Z,86220.50
2023-05-14T15:08:40.081Z,86283.69
2023-05-14T15:11:08.205Z,86242.47
2023-05-14T15:13:35.277Z,86231.56
2023-05-14T15:16:02.325Z,86281.16
2023-05-14T15:18:29.390Z,86266.81
2023-05-14T15:20:56.718Z,86193.25
2023-05-14T15:23:23.724Z,86278.28
2023-05-14T15:25:50.804Z,86236.06
2023-05-14T15:28:18.061Z,86275.91
2023-05-14T15:30:47.396Z,86249.38
2023-05-14T15:33:19.304Z,86212.81
2023-05-14T15:35:46.713Z,86237.97
2023-05-14T15:38:13.859Z,86264.84
2023-05-14T15:40:41.136Z,86242.31
2023-05-14T15:43:08.161Z,86255.66
2023-05-14T15:45:35.135Z,86217.06
2023-05-14T15:48:02.423Z,86244.47
2023-05-14T15:50:29.409Z,86271.56
2023-05-14T15:52:56.428Z,86260.00
2023-05-14T15:55:23.519Z,86271.69
2023-05-14T15:57:50.535Z,86271.78
2023-05-14T16:00:17.999Z,86273.31
2023-05-14T16:02:45.173Z,86245.34
2023-05-14T16:05:12.251Z,86262.34
2023-05-14T16:07:39.745Z,86264.31
2023-05-14T16:10:07.237Z,86282.03
2023-05-14T16:12:34.556Z,86247.91
2023-05-14T16:15:01.639Z,86275.34
2023-05-14T16:17:29.746Z,86269.63
2023-05-14T16:19:56.755Z,86283.53
2023-05-14T16:22:23.716Z,86288.88
2023-05-14T16:24:50.946Z,86272.22
2023-05-14T16:27:19.266Z,86240.69
2023-05-14T16:29:46.548Z,86235.47
2023-05-14T16:32:13.722Z,86281.84
2023-05-14T16:34:40.807Z,86289.53
2023-05-14T16:37:09.290Z,86294.59
2023-05-14T16:39:37.952Z,86291.09
2023-05-14T16:42:05.353Z,86291.69
2023-05-14T16:44:32.402Z,86295.97
2023-05-14T16:46:59.519Z,86297.44
2023-05-14T16:49:26.548Z,86283.25
2023-05-14T16:51:53.760Z,86254.31
2023-05-14T16:54:20.695Z,86279.13
2023-05-14T16:56:48.453Z,86304.41
2023-05-14T16:59:16.310Z,86315.50
2023-05-14T17:01:44.459Z,86293.53
2023-05-14T17:04:11.648Z,86312.16
2023-05-14T17:06:38.663Z,86307.44
2023-05-14T17:09:07.221Z,86303.13
2023-05-14T17:11:34.228Z,86312.03
2023-05-14T17:14:01.265Z,86284.13
2023-05-14T17:16:28.671Z,86122.25
2023-05-14T17:18:56.013Z,86249.88
2023-05-14T17:21:23.019Z,86286.75
2023-05-14T17:23:50.182Z,86294.06
2023-05-14T17:26:17.170Z,86213.97
2023-05-14T17:28:44.344Z,86290.56
2023-05-14T17:31:11.536Z,86256.72
2023-05-14T17:33:38.558Z,86305.09
2023-05-14T17:36:05.866Z,86296.22
2023-05-14T17:38:32.756Z,86301.75
2023-05-14T17:40:59.774Z,86252.06
2023-05-14T17:43:26.720Z,86305.16
2023-05-14T17:45:54.767Z,86300.28
2023-05-14T17:48:23.299Z,86297.84
2023-05-14T17:50:51.827Z,86253.06
2023-05-14T17:53:19.051Z,86244.84
2023-05-14T17:55:46.206Z,86228.69
2023-05-14T17:58:15.577Z,86248.81
2023-05-14T18:00:42.696Z,86296.13
2023-05-14T18:03:10.525Z,86232.28
2023-05-14T18:05:37.798Z,86250.47
2023-05-14T18:08:05.051Z,86175.53
2023-05-14T18:10:32.382Z,86242.59
2023-05-14T18:12:59.476Z,86294.13
2023-05-14T18:15:27.519Z,86300.34
2023-05-14T18:17:54.766Z,86191.25
2023-05-14T18:20:21.933Z,86212.47
2023-05-14T18:22:50.781Z,86253.72
2023-05-14T18:25:18.040Z,86121.81
2023-05-14T18:27:45.679Z,86220.53
2023-05-14T18:30:14.749Z,86234.34
2023-05-14T18:32:43.949Z,86263.84
2023-05-14T18:35:12.581Z,86294.81
2023-05-14T18:37:39.914Z,86256.19
2023-05-14T18:40:07.688Z,86164.06
2023-05-14T18:42:35.120Z,86219.69
2023-05-14T18:45:02.510Z,86296.19
2023-05-14T18:47:30.698Z,86298.88
2023-05-14T18:50:02.019Z,86257.47
2023-05-14T18:52:29.548Z,86256.00
2023-05-14T18:54:57.040Z,86257.47
2023-05-14T18:57:24.152Z,86259.00
2023-05-14T18:59:51.277Z,86302.91
2023-05-14T19:02:18.296Z,86292.00
2023-05-14T19:04:52.307Z,86263.72
2023-05-14T19:07:20.427Z,86303.56
2023-05-14T19:09:47.364Z,86223.81
2023-05-14T19:12:14.624Z,86253.31
2023-05-14T19:14:42.307Z,86262.25
2023-05-14T19:17:09.336Z,86270.94
2023-05-14T19:19:36.572Z,86244.81
2023-05-14T19:22:03.922Z,86244.03
2023-05-14T19:24:30.981Z,86281.13
2023-05-14T19:26:58.194Z,86206.31
2023-05-14T19:29:25.112Z,86278.22
2023-05-14T19:31:52.204Z,86199.81
2023-05-14T19:34:19.247Z,86252.72
2023-05-14T19:36:46.329Z,86244.50
2023-05-14T19:39:13.335Z,86218.28
2023-05-14T19:41:40.480Z,86263.44
2023-05-14T19:44:07.689Z,86255.22
2023-05-14T19:46:34.718Z,86245.69
2023-05-14T19:49:01.754Z,86213.69
2023-05-14T19:51:28.958Z,86239.19
2023-05-14T19:53:56.043Z,86243.25
2023-05-14T19:56:24.695Z,86247.47
2023-05-14T19:58:52.801Z,86240.28
2023-05-14T20:01:21.144Z,86243.28
2023-05-14T20:03:48.433Z,86224.13
2023-05-14T20:06:15.667Z,86175.09
2023-05-14T20:08:43.312Z,86144.13
2023-05-14T20:11:10.675Z,86205.91
2023-05-14T20:13:38.400Z,86218.41
2023-05-14T20:16:05.990Z,86221.28
2023-05-14T20:18:33.152Z,86182.16
2023-05-14T20:21:00.238Z,86217.88
2023-05-14T20:23:27.243Z,86173.34
2023-05-14T20:25:54.170Z,86165.28
2023-05-14T20:28:21.244Z,86167.47
2023-05-14T20:30:48.313Z,86194.19
2023-05-14T20:33:15.469Z,86206.59
2023-05-14T20:35:44.109Z,86129.53
2023-05-14T20:38:12.969Z,86148.91
2023-05-14T20:40:40.482Z,86139.88
2023-05-14T20:43:07.720Z,86190.44
2023-05-14T20:45:34.800Z,86191.19
2023-05-14T20:48:01.841Z,86115.66
2023-05-14T20:50:28.957Z,86127.66
2023-05-14T20:52:56.118Z,86189.69
2023-05-14T20:55:23.551Z,86121.53
2023-05-14T20:57:50.772Z,86131.97
2023-05-14T21:00:18.263Z,86169.75
2023-05-14T21:02:45.565Z,86124.97
2023-05-14T21:05:14.080Z,86107.28
2023-05-14T21:07:41.220Z,86153.28
2023-05-14T21:10:09.138Z,86093.25
2023-05-14T21:12:36.420Z,86152.03
2023-05-14T21:15:03.500Z,86126.94
2023-05-14T21:17:30.769Z,86125.25
2023-05-14T21:19:58.128Z,86165.81
2023-05-14T21:22:25.191Z,86167.19
2023-05-14T21:24:52.156Z,86157.56
2023-05-14T21:27:19.172Z,86147.41
2023-05-14T21:29:46.598Z,86173.56
2023-05-14T21:32:13.696Z,86192.19
2023-05-14T21:34:40.665Z,86041.84
2023-05-14T21:37:07.765Z,86165.59
2023-05-14T21:39:34.710Z,86189.31
2023-05-14T21:42:01.878Z,86176.94
2023-05-14T21:44:28.831Z,86174.84
2023-05-14T21:46:55.942Z,86109.31
2023-05-14T21:49:22.851Z,86138.66
2023-05-14T21:51:53.242Z,86120.66
2023-05-14T21:54:21.092Z,86086.41
2023-05-14T21:56:48.423Z,86113.56
2023-05-14T21:59:15.488Z,86105.63
2023-05-14T22:02:04.936Z,86071.78
2023-05-14T22:04:29.839Z,86052.06
2023-05-14T22:06:57.001Z,86047.94
2023-05-14T22:09:24.758Z,86082.22
2023-05-14T22:11:52.072Z,86122.03
2023-05-14T22:14:18.993Z,86109.72
2023-05-14T22:16:46.316Z,86146.88
2023-05-14T22:19:13.458Z,86130.34
2023-05-14T22:21:40.431Z,86087.09
2023-05-14T22:24:07.642Z,86133.16
2023-05-14T22:26:35.173Z,86049.59
2023-05-14T22:29:02.108Z,86050.00
2023-05-14T22:31:29.524Z,86101.19
2023-05-14T22:33:56.481Z,86093.75
2023-05-14T22:36:23.545Z,86122.00
2023-05-14T22:38:50.709Z,86120.84
2023-05-14T22:41:17.746Z,86071.47
2023-05-14T22:43:44.726Z,86065.56
2023-05-14T22:46:11.732Z,86087.94
2023-05-14T22:48:38.671Z,86089.28
2023-05-14T22:51:05.854Z,86078.31
2023-05-14T22:53:32.789Z,86114.13
2023-05-14T22:55:59.855Z,86108.66
2023-05-14T22:58:26.826Z,86046.66
2023-05-14T23:00:53.815Z,86098.97
2023-05-14T23:03:20.877Z,86091.34
2023-05-14T23:05:47.851Z,86094.84
2023-05-14T23:08:14.909Z,86048.75
2023-05-14T23:10:41.949Z,86091.06
2023-05-14T23:13:09.025Z,86046.44
2023-05-14T23:15:36.073Z,86045.28
2023-05-14T23:18:03.073Z,86072.28
2023-05-14T23:20:30.273Z,86081.03
2023-05-14T23:22:57.203Z,86061.84
2023-05-14T23:25:24.604Z,86038.50
2023-05-14T23:27:52.304Z,86015.28
2023-05-14T23:30:19.387Z,86099.03
2023-05-14T23:32:46.311Z,86085.16
2023-05-14T23:35:13.527Z,86111.38
2023-05-14T23:37:47.303Z,86110.00
2023-05-14T23:40:15.830Z,86094.84
2023-05-14T23:42:43.701Z,86045.50
2023-05-14T23:45:12.487Z,85965.44
2023-05-14T23:47:40.638Z,86029.09
2023-05-14T23:50:07.974Z,86093.53
2023-05-14T23:52:35.021Z,86091.53
2023-05-14T23:55:02.084Z,86094.78
2023-05-14T23:57:29.148Z,86093.34
2023-05-14T23:59:56.175Z,86065.13
